Time,TemperatureF,DewpointF,PressureIn,WindDirection,WindDirectionDegrees,WindSpeedMPH,WindSpeedGustMPH,Humidity,HourlyPrecipIn,Conditions,Clouds,dailyrainin,SoftwareType,DateUTC
2013-04-29 00:05:00,55.2,49.8,29.89,East,90,1.1,-999.0,82,-99.99,,,0.00,Acu-Link.com,2013-04-29 04:05:00,
2013-04-29 00:20:00,55.4,50.0,29.89,WSW,247,2.2,-999.0,82,-99.99,,,0.00,Acu-Link.com,2013-04-29 04:20:00,
2013-04-29 00:35:00,55.4,50.3,29.88,East,90,2.2,-999.0,83,-99.99,,,0.00,Acu-Link.com,2013-04-29 04:35:00,
2013-04-29 00:51:00,55.0,50.3,29.88,East,90,4.2,-999.0,84,-99.99,,,0.00,Acu-Link.com,2013-04-29 04:51:00,
2013-04-29 01:06:00,54.3,50.2,29.89,NE,45,0.0,-999.0,86,-99.99,,,0.01,Acu-Link.com,2013-04-29 05:06:00,
2013-04-29 01:21:00,54.1,50.0,29.87,SSE,157,1.7,-999.0,86,-99.99,,,0.01,Acu-Link.com,2013-04-29 05:21:00,
2013-04-29 01:37:00,54.1,50.3,29.88,SW,225,2.7,-999.0,87,-99.99,,,0.01,Acu-Link.com,2013-04-29 05:37:00,
2013-04-29 01:52:00,54.0,50.5,29.88,SSE,157,2.2,-999.0,88,-99.99,,,0.01,Acu-Link.com,2013-04-29 05:52:00,
2013-04-29 02:07:00,54.0,50.5,29.86,South,180,2.2,-999.0,88,-99.99,,,0.01,Acu-Link.com,2013-04-29 06:07:00,
2013-04-29 02:22:00,53.8,50.3,29.86,West,270,2.2,-999.0,88,-99.99,,,0.01,Acu-Link.com,2013-04-29 06:22:00,
2013-04-29 02:38:00,53.6,50.4,29.85,SE,135,3.7,-999.0,89,-99.99,,,0.01,Acu-Link.com,2013-04-29 06:38:00,
2013-04-29 02:53:00,53.4,50.2,29.86,North,0,1.7,-999.0,89,-99.99,,,0.01,Acu-Link.com,2013-04-29 06:53:00,
2013-04-29 03:08:00,53.4,50.2,29.85,SSE,157,0.0,-999.0,89,-99.99,,,0.01,Acu-Link.com,2013-04-29 07:08:00,
2013-04-29 03:23:00,53.4,50.2,29.85,West,270,3.7,-999.0,89,-99.99,,,0.01,Acu-Link.com,2013-04-29 07:23:00,
2013-04-29 03:38:00,53.4,49.9,29.86,South,180,2.7,-999.0,88,-99.99,,,0.01,Acu-Link.com,2013-04-29 07:38:00,
2013-04-29 03:54:00,53.4,50.2,29.86,WNW,292,0.0,-999.0,89,-99.99,,,0.01,Acu-Link.com,2013-04-29 07:54:00,
2013-04-29 04:09:00,53.4,50.5,29.85,South,180,0.0,-999.0,90,-99.99,,,0.01,Acu-Link.com,2013-04-29 08:09:00,
2013-04-29 04:24:00,52.9,50.3,29.85,SSE,157,1.1,-999.0,91,-99.99,,,0.01,Acu-Link.com,2013-04-29 08:24:00,
2013-04-29 04:39:00,52.3,50.3,29.86,SW,225,1.7,-999.0,93,-99.99,,,0.01,Acu-Link.com,2013-04-29 08:39:00,
2013-04-29 04:55:00,51.8,51.3,29.86,South,180,0.0,-999.0,98,-99.99,,,0.04,Acu-Link.com,2013-04-29 08:55:00,
2013-04-29 05:10:00,51.6,51.1,29.85,SW,225,0.0,-999.0,98,-99.99,,,0.05,Acu-Link.com,2013-04-29 09:10:00,
2013-04-29 05:25:00,51.4,50.9,29.85,SSW,202,0.0,-999.0,98,-99.99,,,0.05,Acu-Link.com,2013-04-29 09:25:00,
2013-04-29 05:40:00,51.4,50.9,29.85,SSW,202,0.0,-999.0,98,-99.99,,,0.05,Acu-Link.com,2013-04-29 09:40:00,
2013-04-29 05:56:00,51.4,50.9,29.86,ESE,112,0.0,-999.0,98,-99.99,,,0.05,Acu-Link.com,2013-04-29 09:56:00,
2013-04-29 06:11:00,51.6,51.1,29.87,SSE,157,0.0,-999.0,98,-99.99,,,0.05,Acu-Link.com,2013-04-29 10:11:00,
2013-04-29 06:26:00,52.2,51.7,29.87,SW,225,0.0,-999.0,98,-99.99,,,0.05,Acu-Link.com,2013-04-29 10:26:00,
2013-04-29 06:42:00,52.7,51.0,29.87,SSW,202,1.1,-999.0,94,-99.99,,,0.05,Acu-Link.com,2013-04-29 10:42:00,
2013-04-29 06:57:00,53.2,51.2,29.88,SSW,202,1.7,-999.0,93,-99.99,,,0.05,Acu-Link.com,2013-04-29 10:57:00,
2013-04-29 07:12:00,53.2,51.2,29.88,West,270,0.0,-999.0,93,-99.99,,,0.05,Acu-Link.com,2013-04-29 11:12:00,
2013-04-29 07:27:00,53.2,51.5,29.88,South,180,0.0,-999.0,94,-99.99,,,0.05,Acu-Link.com,2013-04-29 11:27:00,
2013-04-29 07:42:00,53.2,51.8,29.88,SW,225,0.0,-999.0,95,-99.99,,,0.05,Acu-Link.com,2013-04-29 11:42:00,
2013-04-29 07:58:00,54.5,52.5,29.88,SSW,202,4.2,-999.0,93,-99.99,,,0.05,Acu-Link.com,2013-04-29 11:58:00,
2013-04-29 08:13:00,55.8,52.9,29.88,South,180,2.2,-999.0,90,-99.99,,,0.05,Acu-Link.com,2013-04-29 12:13:00,
2013-04-29 08:28:00,56.3,52.5,29.88,SSE,157,2.7,-999.0,87,-99.99,,,0.05,Acu-Link.com,2013-04-29 12:28:00,
2013-04-29 08:43:00,56.7,52.6,29.88,SE,135,6.3,-999.0,86,-99.99,,,0.05,Acu-Link.com,2013-04-29 12:43:00,
2013-04-29 08:59:00,57.6,53.1,29.88,South,180,5.8,-999.0,85,-99.99,,,0.05,Acu-Link.com,2013-04-29 12:59:00,
2013-04-29 09:14:00,57.9,53.4,29.89,South,180,1.7,-999.0,85,-99.99,,,0.05,Acu-Link.com,2013-04-29 13:14:00,
2013-04-29 09:29:00,57.6,53.4,29.89,SSW,202,2.7,-999.0,86,-99.99,,,0.05,Acu-Link.com,2013-04-29 13:29:00,
2013-04-29 09:44:00,57.7,53.5,29.89,South,180,1.7,-999.0,86,-99.99,,,0.05,Acu-Link.com,2013-04-29 13:44:00,
2013-04-29 09:59:00,58.3,54.1,29.89,South,180,2.2,-999.0,86,-99.99,,,0.05,Acu-Link.com,2013-04-29 13:59:00,
2013-04-29 10:14:00,59.9,55.1,29.89,SE,135,2.7,-999.0,84,-99.99,,,0.05,Acu-Link.com,2013-04-29 14:14:00,
2013-04-29 10:29:00,61.5,56.3,29.88,South,180,4.7,-999.0,83,-99.99,,,0.05,Acu-Link.com,2013-04-29 14:29:00,
2013-04-29 10:45:00,61.2,55.3,29.88,ESE,112,3.2,-999.0,81,-99.99,,,0.05,Acu-Link.com,2013-04-29 14:45:00,
2013-04-29 11:00:00,60.8,55.3,29.89,SW,225,3.2,-999.0,82,-99.99,,,0.05,Acu-Link.com,2013-04-29 15:00:00,
2013-04-29 11:15:00,60.8,54.9,29.89,South,180,3.2,-999.0,81,-99.99,,,0.05,Acu-Link.com,2013-04-29 15:15:00,
2013-04-29 11:30:00,61.3,55.8,29.89,ESE,112,2.2,-999.0,82,-99.99,,,0.05,Acu-Link.com,2013-04-29 15:30:00,
2013-04-29 11:45:00,61.9,55.7,29.89,South,180,4.2,-999.0,80,-99.99,,,0.05,Acu-Link.com,2013-04-29 15:45:00,
2013-04-29 12:01:00,62.1,55.5,29.89,SSW,202,5.3,-999.0,79,-99.99,,,0.05,Acu-Link.com,2013-04-29 16:01:00,
2013-04-29 12:16:00,62.4,55.8,29.89,SSW,202,2.7,-999.0,79,-99.99,,,0.05,Acu-Link.com,2013-04-29 16:16:00,
2013-04-29 12:31:00,62.4,55.4,29.89,SSE,157,3.2,-999.0,78,-99.99,,,0.05,Acu-Link.com,2013-04-29 16:31:00,
2013-04-29 12:46:00,63.3,56.3,29.89,South,180,2.7,-999.0,78,-99.99,,,0.05,Acu-Link.com,2013-04-29 16:46:00,
2013-04-29 13:02:00,64.0,57.0,29.88,SSW,202,4.7,-999.0,78,-99.99,,,0.05,Acu-Link.com,2013-04-29 17:02:00,
2013-04-29 13:17:00,63.9,56.2,29.88,South,180,2.7,-999.0,76,-99.99,,,0.05,Acu-Link.com,2013-04-29 17:17:00,
2013-04-29 13:32:00,64.4,56.3,29.88,West,270,1.7,-999.0,75,-99.99,,,0.05,Acu-Link.com,2013-04-29 17:32:00,
2013-04-29 13:47:00,64.6,56.9,29.89,SSW,202,1.1,-999.0,76,-99.99,,,0.05,Acu-Link.com,2013-04-29 17:47:00,
2013-04-29 14:03:00,64.6,56.5,29.89,WNW,292,0.0,-999.0,75,-99.99,,,0.05,Acu-Link.com,2013-04-29 18:03:00,
2013-04-29 14:18:00,65.5,57.4,29.89,West,270,0.0,-999.0,75,-99.99,,,0.05,Acu-Link.com,2013-04-29 18:18:00,
2013-04-29 14:33:00,64.8,56.7,29.88,SW,225,2.2,-999.0,75,-99.99,,,0.05,Acu-Link.com,2013-04-29 18:33:00,
2013-04-29 14:49:00,65.8,57.6,29.88,SSW,202,2.2,-999.0,75,-99.99,,,0.05,Acu-Link.com,2013-04-29 18:49:00,
2013-04-29 15:04:00,65.8,56.5,29.88,South,180,2.7,-999.0,72,-99.99,,,0.05,Acu-Link.com,2013-04-29 19:04:00,
2013-04-29 15:19:00,65.7,57.2,29.89,WSW,247,3.7,-999.0,74,-99.99,,,0.05,Acu-Link.com,2013-04-29 19:19:00,
2013-04-29 15:34:00,65.3,57.2,29.88,WSW,247,2.7,-999.0,75,-99.99,,,0.05,Acu-Link.com,2013-04-29 19:34:00,
2013-04-29 15:49:00,65.5,57.4,29.88,South,180,1.1,-999.0,75,-99.99,,,0.05,Acu-Link.com,2013-04-29 19:49:00,
2013-04-29 16:05:00,65.1,57.3,29.87,SSW,202,2.2,-999.0,76,-99.99,,,0.05,Acu-Link.com,2013-04-29 20:05:00,
2013-04-29 16:20:00,66.4,58.2,29.88,SSE,157,0.0,-999.0,75,-99.99,,,0.05,Acu-Link.com,2013-04-29 20:20:00,
2013-04-29 16:35:00,65.8,57.3,29.87,South,180,1.7,-999.0,74,-99.99,,,0.05,Acu-Link.com,2013-04-29 20:35:00,
2013-04-29 16:51:00,65.8,58.0,29.87,WSW,247,2.2,-999.0,76,-99.99,,,0.05,Acu-Link.com,2013-04-29 20:51:00,
2013-04-29 17:06:00,65.5,57.7,29.87,West,270,1.1,-999.0,76,-99.99,,,0.05,Acu-Link.com,2013-04-29 21:06:00,
2013-04-29 17:21:00,66.0,58.2,29.87,SW,225,2.7,-999.0,76,-99.99,,,0.05,Acu-Link.com,2013-04-29 21:21:00,
2013-04-29 17:37:00,65.3,57.5,29.87,South,180,1.1,-999.0,76,-99.99,,,0.05,Acu-Link.com,2013-04-29 21:37:00,
2013-04-29 17:52:00,65.3,57.9,29.88,SSW,202,2.7,-999.0,77,-99.99,,,0.05,Acu-Link.com,2013-04-29 21:52:00,
2013-04-29 18:07:00,64.8,57.4,29.88,South,180,2.7,-999.0,77,-99.99,,,0.05,Acu-Link.com,2013-04-29 22:07:00,
2013-04-29 18:22:00,64.4,57.4,29.88,SW,225,2.2,-999.0,78,-99.99,,,0.05,Acu-Link.com,2013-04-29 22:22:00,
2013-04-29 18:38:00,63.7,57.1,29.88,SW,225,1.7,-999.0,79,-99.99,,,0.05,Acu-Link.com,2013-04-29 22:38:00,
2013-04-29 18:53:00,63.5,57.2,29.89,SSW,202,1.1,-999.0,80,-99.99,,,0.05,Acu-Link.com,2013-04-29 22:53:00,
2013-04-29 19:08:00,63.3,57.0,29.89,WNW,292,1.7,-999.0,80,-99.99,,,0.05,Acu-Link.com,2013-04-29 23:08:00,
2013-04-29 19:24:00,63.3,57.4,29.88,South,180,0.0,-999.0,81,-99.99,,,0.05,Acu-Link.com,2013-04-29 23:24:00,
2013-04-29 19:39:00,62.8,57.2,29.89,West,270,0.0,-999.0,82,-99.99,,,0.05,Acu-Link.com,2013-04-29 23:39:00,
2013-04-29 19:54:00,62.4,57.2,29.89,ESE,112,1.1,-999.0,83,-99.99,,,0.05,Acu-Link.com,2013-04-29 23:54:00,
2013-04-29 20:10:00,61.9,56.3,29.91,South,180,1.7,-999.0,82,-99.99,,,0.05,Acu-Link.com,2013-04-30 00:10:00,
2013-04-29 20:25:00,61.7,56.1,29.91,NNE,22,1.1,-999.0,82,-99.99,,,0.05,Acu-Link.com,2013-04-30 00:25:00,
2013-04-29 20:40:00,61.5,56.3,29.92,South,180,2.2,-999.0,83,-99.99,,,0.05,Acu-Link.com,2013-04-30 00:40:00,
2013-04-29 20:55:00,61.3,55.8,29.91,ESE,112,1.1,-999.0,82,-99.99,,,0.05,Acu-Link.com,2013-04-30 00:55:00,
2013-04-29 21:10:00,61.0,55.8,29.92,SSW,202,2.2,-999.0,83,-99.99,,,0.05,Acu-Link.com,2013-04-30 01:10:00,
2013-04-29 21:26:00,60.6,55.4,29.92,South,180,0.0,-999.0,83,-99.99,,,0.05,Acu-Link.com,2013-04-30 01:26:00,
2013-04-29 21:41:00,60.6,55.7,29.93,SW,225,2.2,-999.0,84,-99.99,,,0.05,Acu-Link.com,2013-04-30 01:41:00,
2013-04-29 21:57:00,60.4,55.5,29.93,East,90,0.0,-999.0,84,-99.99,,,0.05,Acu-Link.com,2013-04-30 01:57:00,
2013-04-29 22:12:00,60.1,55.6,29.93,WSW,247,0.0,-999.0,85,-99.99,,,0.05,Acu-Link.com,2013-04-30 02:12:00,
2013-04-29 22:27:00,59.7,55.2,29.93,SW,225,0.0,-999.0,85,-99.99,,,0.05,Acu-Link.com,2013-04-30 02:27:00,
2013-04-29 22:43:00,59.2,54.7,29.92,SE,135,0.0,-999.0,85,-99.99,,,0.05,Acu-Link.com,2013-04-30 02:43:00,
2013-04-29 22:58:00,59.2,55.0,29.93,SSW,202,0.0,-999.0,86,-99.99,,,0.05,Acu-Link.com,2013-04-30 02:58:00,
2013-04-29 23:13:00,58.8,54.6,29.93,SE,135,0.0,-999.0,86,-99.99,,,0.05,Acu-Link.com,2013-04-30 03:13:00,
2013-04-29 23:29:00,58.3,54.4,29.93,WNW,292,0.0,-999.0,87,-99.99,,,0.05,Acu-Link.com,2013-04-30 03:29:00,
2013-04-29 23:44:00,57.2,53.7,29.92,West,270,0.0,-999.0,88,-99.99,,,0.05,Acu-Link.com,2013-04-30 03:44:00,